Time;durP1;ratioP1;P1;durP2;ratioP2;P2;SDS_P1;SDS_P2;PMS_P1;PMS_P2;Temp;Humidity;BMP_temperature;BMP_pressure;BME280_temperature;BME280_humidity;BME280_pressure;Samples;Min_cycle;Max_cycle;Signal;HPM_P1;HPM_P2
2023/03/14 00:02:21;;;;;;;17.00;4.43;;;;;;;;;;5064053;28;20053;-61
2023/03/14 00:04:47;;;;;;;17.48;6.03;;;;;;;;;;5066825;28;20048;-61
2023/03/14 00:07:14;;;;;;;17.35;4.78;;;;;;;;;;5078287;28;20563;-62
2023/03/14 00:09:40;;;;;;;21.58;6.13;;;;;;;;;;5061149;28;20496;-62
2023/03/14 00:12:07;;;;;;;25.45;5.57;;;;;;;;;;5075546;28;20040;-61
2023/03/14 00:14:33;;;;;;;22.08;5.80;;;;;;;;;;5060160;28;20057;-62
2023/03/14 00:17:00;;;;;;;21.75;5.05;;;;;;;;;;5072050;28;20137;-62
2023/03/14 00:19:26;;;;;;;18.77;4.53;;;;;;;;;;5069277;28;20066;-61
2023/03/14 00:21:52;;;;;;;27.17;5.13;;;;;;;;;;5066050;28;20064;-61
2023/03/14 00:24:18;;;;;;;16.40;4.00;;;;;;;;;;5053436;28;20045;-61
2023/03/14 00:26:45;;;;;;;19.25;3.78;;;;;;;;;;5064769;28;20063;-62
2023/03/14 00:29:11;;;;;;;27.42;4.72;;;;;;;;;;5065099;28;20053;-61
2023/03/14 00:31:39;;;;;;;20.27;4.53;;;;;;;;;;5062854;28;20844;-62
2023/03/14 00:34:05;;;;;;;17.67;4.22;;;;;;;;;;5076882;28;20103;-63
2023/03/14 00:36:32;;;;;;;16.70;3.63;;;;;;;;;;5065465;28;20133;-62
2023/03/14 00:38:58;;;;;;;18.52;3.75;;;;;;;;;;5065157;28;20065;-62
2023/03/14 00:41:25;;;;;;;17.80;3.35;;;;;;;;;;5070642;28;20049;-63
2023/03/14 00:43:51;;;;;;;17.55;3.67;;;;;;;;;;5078055;28;20498;-61
2023/03/14 00:46:17;;;;;;;18.70;4.50;;;;;;;;;;5069744;28;20063;-62
2023/03/14 00:48:45;;;;;;;11.77;2.70;;;;;;;;;;5059551;28;20053;-62
2023/03/14 00:51:13;;;;;;;10.57;2.88;;;;;;;;;;5073161;28;20884;-61
2023/03/14 00:53:40;;;;;;;10.13;3.38;;;;;;;;;;5069800;28;20049;-62
2023/03/14 00:56:07;;;;;;;10.93;2.08;;;;;;;;;;5069433;28;20510;-63
2023/03/14 00:58:34;;;;;;;8.95;2.75;;;;;;;;;;5065770;28;20048;-61
2023/03/14 01:01:05;;;;;;;11.30;3.28;;;;;;;;;;5074735;28;20056;-61
2023/03/14 01:03:32;;;;;;;6.10;2.15;;;;;;;;;;5067739;28;20548;-62
2023/03/14 01:06:11;;;;;;;15.75;2.53;;;;;;;;;;5057211;28;20045;-61
2023/03/14 01:08:38;;;;;;;13.02;2.58;;;;;;;;;;5053528;28;20622;-61
2023/03/14 01:11:15;;;;;;;11.13;2.28;;;;;;;;;;5077102;28;20084;-61
2023/03/14 01:13:41;;;;;;;9.52;2.38;;;;;;;;;;5062049;28;20052;-61
2023/03/14 01:16:09;;;;;;;13.13;2.78;;;;;;;;;;5070556;28;20056;-61
2023/03/14 01:18:36;;;;;;;7.63;1.85;;;;;;;;;;5063093;28;20049;-61
2023/03/14 01:21:19;;;;;;;9.68;2.00;;;;;;;;;;5066116;28;20055;-61
2023/03/14 01:23:46;;;;;;;11.98;2.92;;;;;;;;;;5077673;28;20056;-61
2023/03/14 01:26:14;;;;;;;11.35;2.35;;;;;;;;;;5062857;28;20068;-61
2023/03/14 01:28:40;;;;;;;15.60;3.15;;;;;;;;;;5060280;28;20080;-61
2023/03/14 01:31:08;;;;;;;13.13;1.90;;;;;;;;;;5058626;28;20049;-62
2023/03/14 01:33:35;;;;;;;8.23;2.20;;;;;;;;;;5076098;28;20514;-61
2023/03/14 01:36:02;;;;;;;9.32;2.35;;;;;;;;;;5063016;28;20432;-63
2023/03/14 01:38:29;;;;;;;7.90;2.28;;;;;;;;;;5070984;28;20738;-61
2023/03/14 01:40:56;;;;;;;9.77;2.35;;;;;;;;;;5073512;28;20372;-61
2023/03/14 01:43:24;;;;;;;11.55;2.75;;;;;;;;;;5074454;28;20110;-61
2023/03/14 01:46:05;;;;;;;9.88;2.30;;;;;;;;;;5073705;28;20045;-61
2023/03/14 01:48:35;;;;;;;11.63;2.92;;;;;;;;;;5066192;28;20167;-61
2023/03/14 01:51:02;;;;;;;9.57;2.40;;;;;;;;;;5074124;28;21017;-62
2023/03/14 01:53:28;;;;;;;11.45;2.70;;;;;;;;;;5069014;28;20056;-61
2023/03/14 01:55:56;;;;;;;10.05;2.75;;;;;;;;;;5067288;28;20079;-62
2023/03/14 01:58:26;;;;;;;6.95;1.90;;;;;;;;;;5060036;28;20430;-61
2023/03/14 02:00:54;;;;;;;3.45;1.85;;;;;;;;;;5065276;28;20190;-62
2023/03/14 02:03:21;;;;;;;11.23;2.55;;;;;;;;;;5065815;28;20522;-61
2023/03/14 02:05:48;;;;;;;4.88;2.13;;;;;;;;;;5071827;28;20140;-61
2023/03/14 02:08:17;;;;;;;8.35;2.22;;;;;;;;;;5077110;28;20091;-61
2023/03/14 02:10:45;;;;;;;9.23;1.90;;;;;;;;;;5059613;28;20622;-61
2023/03/14 02:13:12;;;;;;;10.35;2.03;;;;;;;;;;5063670;28;20048;-61
2023/03/14 02:15:39;;;;;;;9.13;1.50;;;;;;;;;;5070347;28;20515;-61
2023/03/14 02:18:06;;;;;;;9.05;2.05;;;;;;;;;;5075696;28;20056;-62
2023/03/14 02:20:35;;;;;;;9.15;1.67;;;;;;;;;;5061427;28;20690;-61
2023/03/14 02:23:02;;;;;;;8.25;1.98;;;;;;;;;;5067634;28;20533;-61
2023/03/14 02:26:07;;;;;;;8.15;2.03;;;;;;;;;;5065307;28;20049;-61
2023/03/14 02:28:33;;;;;;;12.00;2.30;;;;;;;;;;5018208;28;20461;-60
2023/03/14 02:31:00;;;;;;;7.90;1.70;;;;;;;;;;5019762;28;20217;-62
2023/03/14 02:33:27;;;;;;;7.45;1.75;;;;;;;;;;5018994;28;20632;-61
2023/03/14 02:36:01;;;;;;;7.07;1.90;;;;;;;;;;5020376;28;20085;-61
2023/03/14 02:38:28;;;;;;;6.83;1.57;;;;;;;;;;5019453;28;20097;-61
2023/03/14 02:40:54;;;;;;;5.68;1.92;;;;;;;;;;5015411;28;20112;-62
2023/03/14 02:43:21;;;;;;;13.82;2.63;;;;;;;;;;5019699;28;20425;-61
2023/03/14 02:45:48;;;;;;;8.63;1.90;;;;;;;;;;5018391;28;20771;-61
2023/03/14 02:48:17;;;;;;;9.15;1.67;;;;;;;;;;5018240;28;20058;-62
2023/03/14 02:50:45;;;;;;;6.25;1.92;;;;;;;;;;5017935;28;20545;-61
2023/03/14 02:53:12;;;;;;;10.85;1.90;;;;;;;;;;5019289;28;20049;-61
2023/03/14 02:55:38;;;;;;;9.90;1.80;;;;;;;;;;5019419;28;20077;-61
2023/03/14 02:58:04;;;;;;;10.57;1.80;;;;;;;;;;5018684;28;20050;-62
2023/03/14 03:00:31;;;;;;;5.50;1.90;;;;;;;;;;5061223;28;20056;-61
2023/03/14 03:02:57;;;;;;;8.85;2.10;;;;;;;;;;5069724;28;20139;-61
2023/03/14 03:05:24;;;;;;;12.25;2.03;;;;;;;;;;5071731;28;20108;-61
2023/03/14 03:07:51;;;;;;;7.88;2.17;;;;;;;;;;5080893;28;20561;-61
2023/03/14 03:10:20;;;;;;;5.53;1.85;;;;;;;;;;5074117;28;20110;-61
2023/03/14 03:12:46;;;;;;;11.18;2.83;;;;;;;;;;5066118;28;20049;-61
2023/03/14 03:15:13;;;;;;;10.02;2.55;;;;;;;;;;5081096;28;20056;-60
2023/03/14 03:17:39;;;;;;;8.93;2.10;;;;;;;;;;5071248;28;20136;-61
2023/03/14 03:20:08;;;;;;;7.13;2.70;;;;;;;;;;5058481;28;20053;-62
2023/03/14 03:22:35;;;;;;;7.93;2.72;;;;;;;;;;5073605;28;20167;-62
2023/03/14 03:25:03;;;;;;;10.30;2.45;;;;;;;;;;5069845;28;20053;-63
2023/03/14 03:27:33;;;;;;;8.57;2.72;;;;;;;;;;5068177;28;20076;-60
2023/03/14 03:30:00;;;;;;;5.60;2.72;;;;;;;;;;5073746;28;20068;-61
2023/03/14 03:32:26;;;;;;;10.45;2.58;;;;;;;;;;5065301;28;20093;-61
2023/03/14 03:34:53;;;;;;;5.07;2.47;;;;;;;;;;5076829;28;20144;-61
2023/03/14 03:37:19;;;;;;;13.07;2.47;;;;;;;;;;5075091;28;20163;-61
2023/03/14 03:39:46;;;;;;;9.13;2.67;;;;;;;;;;5066810;28;20074;-61
2023/03/14 03:42:12;;;;;;;10.07;2.97;;;;;;;;;;5076866;28;20186;-61
2023/03/14 03:44:38;;;;;;;9.40;3.40;;;;;;;;;;5067297;28;20049;-61
2023/03/14 03:47:05;;;;;;;6.63;2.42;;;;;;;;;;5064884;28;20497;-61
2023/03/14 03:49:32;;;;;;;9.07;2.10;;;;;;;;;;5075292;28;20077;-61
2023/03/14 03:51:58;;;;;;;11.77;2.38;;;;;;;;;;5074507;28;20531;-61
2023/03/14 03:54:25;;;;;;;5.72;2.20;;;;;;;;;;5069715;28;20057;-61
2023/03/14 03:56:52;;;;;;;11.15;2.33;;;;;;;;;;5062196;28;20056;-61
2023/03/14 03:59:18;;;;;;;13.50;2.92;;;;;;;;;;5068098;28;20087;-61
2023/03/14 04:01:45;;;;;;;9.55;2.45;;;;;;;;;;5060804;28;20052;-62
2023/03/14 04:04:12;;;;;;;9.10;2.10;;;;;;;;;;5063050;28;20486;-62
2023/03/14 04:06:38;;;;;;;10.93;2.60;;;;;;;;;;5066730;28;20423;-61
2023/03/14 04:09:05;;;;;;;6.88;1.98;;;;;;;;;;5062566;28;20048;-62
2023/03/14 04:11:32;;;;;;;8.65;2.13;;;;;;;;;;5064481;28;20049;-61
2023/03/14 04:13:58;;;;;;;11.75;2.15;;;;;;;;;;5066748;28;20052;-61
2023/03/14 04:16:25;;;;;;;6.90;2.35;;;;;;;;;;5068239;28;20144;-62
2023/03/14 04:18:52;;;;;;;7.82;2.45;;;;;;;;;;5077260;28;20124;-61
2023/03/14 04:21:18;;;;;;;11.10;2.15;;;;;;;;;;5072140;28;20311;-61
2023/03/14 04:23:45;;;;;;;10.80;3.15;;;;;;;;;;5069808;28;20052;-60
2023/03/14 04:26:11;;;;;;;9.57;1.88;;;;;;;;;;5069384;28;20048;-63
2023/03/14 04:28:38;;;;;;;7.57;1.55;;;;;;;;;;5064925;28;20517;-60
2023/03/14 04:31:18;;;;;;;9.52;1.85;;;;;;;;;;5063667;28;20072;-63
2023/03/14 04:33:45;;;;;;;8.38;2.15;;;;;;;;;;5066211;28;20041;-62
2023/03/14 04:36:12;;;;;;;8.43;2.15;;;;;;;;;;5078013;28;20057;-63
2023/03/14 04:38:38;;;;;;;9.88;2.53;;;;;;;;;;5077806;28;20072;-62
2023/03/14 04:41:05;;;;;;;6.28;1.60;;;;;;;;;;5064347;28;20079;-62
2023/03/14 04:43:32;;;;;;;10.00;2.20;;;;;;;;;;5069298;28;20548;-63
2023/03/14 04:45:58;;;;;;;12.20;3.42;;;;;;;;;;5076036;28;20095;-63
2023/03/14 04:48:26;;;;;;;14.25;2.30;;;;;;;;;;5069039;28;20053;-63
2023/03/14 04:50:52;;;;;;;13.07;2.53;;;;;;;;;;5069393;28;20045;-61
2023/03/14 04:53:19;;;;;;;9.43;2.17;;;;;;;;;;5057779;28;20056;-61
2023/03/14 04:55:49;;;;;;;8.10;1.98;;;;;;;;;;5068657;28;20129;-62
2023/03/14 04:58:16;;;;;;;7.32;2.05;;;;;;;;;;5066819;28;20136;-61
2023/03/14 05:00:42;;;;;;;13.52;2.75;;;;;;;;;;5064513;28;20090;-61
2023/03/14 05:03:08;;;;;;;11.27;2.65;;;;;;;;;;5068917;28;20482;-61
2023/03/14 05:05:35;;;;;;;10.88;2.50;;;;;;;;;;5079895;28;20517;-61
2023/03/14 05:08:01;;;;;;;8.02;2.20;;;;;;;;;;5065088;28;20364;-62
2023/03/14 05:10:28;;;;;;;7.80;2.30;;;;;;;;;;5067342;28;20512;-61
2023/03/14 05:12:55;;;;;;;9.82;3.28;;;;;;;;;;5071659;28;20056;-62
2023/03/14 05:15:21;;;;;;;12.18;2.58;;;;;;;;;;5071817;28;20531;-61
2023/03/14 05:17:48;;;;;;;6.80;2.83;;;;;;;;;;5075274;28;20044;-61
2023/03/14 05:20:15;;;;;;;5.85;2.58;;;;;;;;;;5066261;28;20877;-61
2023/03/14 05:22:41;;;;;;;8.88;2.80;;;;;;;;;;5058015;28;20079;-61
2023/03/14 05:25:08;;;;;;;7.53;2.85;;;;;;;;;;5067730;28;20048;-61
2023/03/14 05:27:35;;;;;;;5.55;3.25;;;;;;;;;;5065894;28;20052;-61
2023/03/14 05:30:03;;;;;;;8.90;3.13;;;;;;;;;;5068007;28;20126;-60
2023/03/14 05:32:29;;;;;;;5.80;2.75;;;;;;;;;;5069951;28;20143;-61
2023/03/14 05:34:58;;;;;;;6.80;2.70;;;;;;;;;;5063476;28;20057;-61
2023/03/14 05:37:25;;;;;;;12.40;3.33;;;;;;;;;;5064740;28;20051;-62
2023/03/14 05:39:52;;;;;;;7.93;2.67;;;;;;;;;;5052121;28;20075;-61
2023/03/14 05:42:18;;;;;;;8.73;3.00;;;;;;;;;;5054881;28;20594;-61
2023/03/14 05:44:44;;;;;;;8.68;2.58;;;;;;;;;;5067715;28;20064;-61
2023/03/14 05:47:11;;;;;;;16.98;4.05;;;;;;;;;;5074928;28;20048;-61
2023/03/14 05:49:37;;;;;;;6.25;2.60;;;;;;;;;;5061790;28;20550;-62
2023/03/14 05:52:04;;;;;;;7.38;3.17;;;;;;;;;;5070784;28;20203;-61
2023/03/14 05:54:30;;;;;;;10.70;3.25;;;;;;;;;;5065405;28;20108;-61
2023/03/14 05:56:57;;;;;;;10.68;3.83;;;;;;;;;;5064528;28;20636;-61
2023/03/14 05:59:23;;;;;;;8.65;4.00;;;;;;;;;;5064263;28;20040;-60
2023/03/14 06:01:50;;;;;;;7.57;3.60;;;;;;;;;;5074654;28;20553;-60
2023/03/14 06:04:16;;;;;;;9.85;4.05;;;;;;;;;;5079113;28;20086;-61
2023/03/14 06:06:44;;;;;;;9.52;4.47;;;;;;;;;;5064832;28;20155;-62
2023/03/14 06:09:10;;;;;;;10.05;4.50;;;;;;;;;;5070893;28;20061;-60
2023/03/14 06:11:36;;;;;;;8.93;4.18;;;;;;;;;;5064864;28;20197;-60
2023/03/14 06:14:02;;;;;;;12.35;5.82;;;;;;;;;;5072321;28;20048;-62
2023/03/14 06:16:29;;;;;;;11.93;5.35;;;;;;;;;;5060997;28;20060;-61
2023/03/14 06:18:55;;;;;;;11.27;4.97;;;;;;;;;;5066833;28;20583;-63
2023/03/14 06:21:21;;;;;;;16.05;5.80;;;;;;;;;;5071998;28;20262;-61
2023/03/14 06:23:48;;;;;;;13.43;5.32;;;;;;;;;;5066599;28;20046;-60
2023/03/14 06:26:14;;;;;;;11.05;5.70;;;;;;;;;;5053802;28;20046;-61
2023/03/14 06:28:41;;;;;;;11.52;5.80;;;;;;;;;;5066322;28;20060;-60
2023/03/14 06:31:07;;;;;;;13.13;6.22;;;;;;;;;;5058466;28;20056;-61
2023/03/14 06:33:34;;;;;;;12.52;6.53;;;;;;;;;;5068504;28;20560;-61
2023/03/14 06:36:00;;;;;;;11.88;6.90;;;;;;;;;;5060271;28;20053;-62
2023/03/14 06:38:27;;;;;;;9.93;4.88;;;;;;;;;;5063140;28;20049;-61
2023/03/14 06:40:54;;;;;;;9.32;5.05;;;;;;;;;;5056345;28;20049;-62
2023/03/14 06:43:20;;;;;;;3.92;2.42;;;;;;;;;;5046169;28;20054;-62
2023/03/14 06:45:46;;;;;;;1.60;1.17;;;;;;;;;;5050727;28;20052;-61
2023/03/14 06:48:13;;;;;;;1.35;1.00;;;;;;;;;;5068122;28;20711;-63
2023/03/14 06:50:39;;;;;;;2.20;0.70;;;;;;;;;;5055353;28;20057;-63
2023/03/14 06:53:06;;;;;;;1.55;0.70;;;;;;;;;;5058782;28;20577;-62
2023/03/14 06:55:32;;;;;;;4.47;0.70;;;;;;;;;;5063137;28;20049;-64
2023/03/14 06:57:58;;;;;;;3.50;1.33;;;;;;;;;;5064653;28;20051;-62
2023/03/14 07:00:25;;;;;;;4.93;1.00;;;;;;;;;;5049183;28;20055;-62
2023/03/14 07:02:51;;;;;;;1.55;1.05;;;;;;;;;;5062872;28;20058;-62
2023/03/14 07:05:17;;;;;;;5.00;0.82;;;;;;;;;;5060874;28;20124;-61
2023/03/14 07:07:44;;;;;;;1.75;1.13;;;;;;;;;;5073296;28;20052;-61
2023/03/14 07:10:10;;;;;;;4.78;1.60;;;;;;;;;;5057199;28;20050;-61
2023/03/14 07:12:37;;;;;;;1.30;0.98;;;;;;;;;;5058710;28;20055;-61
2023/03/14 07:15:03;;;;;;;4.00;0.95;;;;;;;;;;5061424;28;20053;-61
2023/03/14 07:17:43;;;;;;;2.72;1.23;;;;;;;;;;5060529;28;20085;-61
2023/03/14 07:20:10;;;;;;;3.63;1.90;;;;;;;;;;5061228;28;20680;-60
2023/03/14 07:22:36;;;;;;;2.70;1.30;;;;;;;;;;5063176;28;20056;-62
2023/03/14 07:25:03;;;;;;;4.97;1.52;;;;;;;;;;5062326;28;20508;-60
2023/03/14 07:27:29;;;;;;;2.13;1.38;;;;;;;;;;5053278;28;20694;-63
2023/03/14 07:29:55;;;;;;;2.75;1.10;;;;;;;;;;5063386;28;20201;-60
2023/03/14 07:32:22;;;;;;;2.05;0.88;;;;;;;;;;5062620;28;20056;-63
2023/03/14 07:34:48;;;;;;;1.75;0.75;;;;;;;;;;5062692;28;20099;-63
2023/03/14 07:37:15;;;;;;;1.23;0.75;;;;;;;;;;5061612;28;20102;-62
2023/03/14 07:39:41;;;;;;;2.10;0.95;;;;;;;;;;5056011;28;20140;-62
2023/03/14 07:42:07;;;;;;;1.45;0.80;;;;;;;;;;5062548;28;20073;-62
2023/03/14 07:44:34;;;;;;;4.20;1.05;;;;;;;;;;5077297;28;20055;-62
2023/03/14 07:47:00;;;;;;;1.55;0.85;;;;;;;;;;5073314;28;20059;-63
2023/03/14 07:49:28;;;;;;;2.17;1.08;;;;;;;;;;5071273;28;20574;-63
2023/03/14 07:51:54;;;;;;;3.72;0.73;;;;;;;;;;5060976;28;20523;-62
2023/03/14 07:54:21;;;;;;;1.98;0.90;;;;;;;;;;5055066;28;20048;-61
2023/03/14 07:56:47;;;;;;;4.32;1.00;;;;;;;;;;5061512;28;20458;-61
2023/03/14 07:59:13;;;;;;;6.15;1.50;;;;;;;;;;5069213;28;20308;-60
2023/03/14 08:01:39;;;;;;;7.15;1.70;;;;;;;;;;5072328;28;20056;-60
2023/03/14 08:04:06;;;;;;;5.22;1.02;;;;;;;;;;5061542;28;20057;-60
2023/03/14 08:06:32;;;;;;;3.95;0.88;;;;;;;;;;5052244;28;20053;-62
2023/03/14 08:08:59;;;;;;;3.67;1.13;;;;;;;;;;5058380;28;20063;-60
2023/03/14 08:11:25;;;;;;;6.60;1.27;;;;;;;;;;5062180;28;20088;-60
2023/03/14 08:13:52;;;;;;;3.80;1.00;;;;;;;;;;5064701;28;20570;-63
2023/03/14 08:16:21;;;;;;;3.22;0.88;;;;;;;;;;5067559;28;20049;-62
2023/03/14 08:18:48;;;;;;;6.70;0.82;;;;;;;;;;5063236;28;20048;-63
2023/03/14 08:21:14;;;;;;;4.78;0.88;;;;;;;;;;5053126;28;20537;-63
2023/03/14 08:23:40;;;;;;;6.25;1.60;;;;;;;;;;5049753;28;20052;-62
2023/03/14 08:26:07;;;;;;;1.92;0.80;;;;;;;;;;5061868;28;20523;-62
2023/03/14 08:28:33;;;;;;;5.60;1.00;;;;;;;;;;5073525;28;20052;-63
2023/03/14 08:31:00;;;;;;;3.75;1.08;;;;;;;;;;5068054;28;20099;-62
2023/03/14 08:33:28;;;;;;;3.70;0.75;;;;;;;;;;5068631;28;20068;-63
2023/03/14 08:35:55;;;;;;;3.15;0.80;;;;;;;;;;5056789;28;20056;-61
2023/03/14 08:38:21;;;;;;;2.28;0.90;;;;;;;;;;5071873;28;20379;-61
2023/03/14 08:40:49;;;;;;;5.72;0.77;;;;;;;;;;5065063;28;20111;-61
2023/03/14 08:43:16;;;;;;;0.95;0.45;;;;;;;;;;5067531;28;20118;-62
2023/03/14 08:45:42;;;;;;;3.58;0.90;;;;;;;;;;5070270;28;20048;-62
2023/03/14 08:48:08;;;;;;;11.70;0.80;;;;;;;;;;5080214;28;20063;-61
2023/03/14 08:50:35;;;;;;;3.22;1.00;;;;;;;;;;5060766;28;20053;-61
2023/03/14 08:53:02;;;;;;;4.95;0.80;;;;;;;;;;5059858;28;20131;-62
2023/03/14 08:55:29;;;;;;;6.82;0.93;;;;;;;;;;5061157;28;20055;-61
2023/03/14 08:57:55;;;;;;;5.70;1.77;;;;;;;;;;5059410;28;20049;-62
2023/03/14 09:00:22;;;;;;;1.65;0.50;;;;;;;;;;5051918;28;20067;-62
2023/03/14 09:02:48;;;;;;;6.88;0.98;;;;;;;;;;5060755;28;20103;-61
2023/03/14 09:05:15;;;;;;;3.10;1.30;;;;;;;;;;5059212;28;20048;-62
2023/03/14 09:07:42;;;;;;;10.93;1.27;;;;;;;;;;5060894;28;20052;-61
2023/03/14 09:10:09;;;;;;;10.60;1.15;;;;;;;;;;5061273;28;20053;-61
2023/03/14 09:12:36;;;;;;;9.88;1.55;;;;;;;;;;5062146;28;20049;-61
2023/03/14 09:15:03;;;;;;;12.38;2.42;;;;;;;;;;5056726;28;20054;-61
2023/03/14 09:17:29;;;;;;;3.53;0.60;;;;;;;;;;5064371;28;20504;-62
2023/03/14 09:19:55;;;;;;;13.20;2.25;;;;;;;;;;5055328;28;20071;-61
2023/03/14 09:22:25;;;;;;;6.88;1.27;;;;;;;;;;5071123;28;20123;-62
2023/03/14 09:24:52;;;;;;;12.38;2.40;;;;;;;;;;5059185;28;20147;-61
2023/03/14 09:27:18;;;;;;;9.10;1.58;;;;;;;;;;5049087;28;20061;-62
2023/03/14 09:29:45;;;;;;;9.23;1.48;;;;;;;;;;5072560;28;20068;-61
2023/03/14 09:32:11;;;;;;;12.05;1.52;;;;;;;;;;5060278;28;20048;-62
2023/03/14 09:34:38;;;;;;;10.88;1.70;;;;;;;;;;5069509;28;20051;-62
2023/03/14 09:37:04;;;;;;;9.93;1.58;;;;;;;;;;5049387;28;20499;-61
2023/03/14 09:39:30;;;;;;;13.60;2.40;;;;;;;;;;5051074;28;20132;-61
2023/03/14 09:42:00;;;;;;;17.80;2.58;;;;;;;;;;5059544;28;20053;-61
2023/03/14 09:44:31;;;;;;;18.38;2.13;;;;;;;;;;5060956;28;20513;-61
2023/03/14 09:47:04;;;;;;;8.02;1.75;;;;;;;;;;5076010;28;20045;-61
2023/03/14 09:49:32;;;;;;;16.10;2.05;;;;;;;;;;5071983;28;20048;-61
2023/03/14 09:52:00;;;;;;;11.27;1.88;;;;;;;;;;5055860;28;20140;-61
2023/03/14 09:54:31;;;;;;;22.55;4.15;;;;;;;;;;5059932;28;20119;-62
2023/03/14 09:56:57;;;;;;;12.48;3.10;;;;;;;;;;5059553;28;20500;-61
2023/03/14 09:59:24;;;;;;;16.15;2.30;;;;;;;;;;5060212;28;20057;-61
2023/03/14 10:01:51;;;;;;;22.98;3.17;;;;;;;;;;5061283;28;20119;-61
2023/03/14 10:04:20;;;;;;;15.45;1.88;;;;;;;;;;5068243;28;20088;-61
2023/03/14 10:06:48;;;;;;;11.57;1.75;;;;;;;;;;5069246;28;20148;-60
2023/03/14 10:09:18;;;;;;;10.52;1.67;;;;;;;;;;5060617;28;20530;-59
2023/03/14 10:11:44;;;;;;;14.80;2.53;;;;;;;;;;5055562;28;20139;-59
2023/03/14 10:14:19;;;;;;;17.17;2.28;;;;;;;;;;5051108;28;20596;-61
2023/03/14 10:16:46;;;;;;;8.02;2.35;;;;;;;;;;5067776;28;20482;-61
2023/03/14 10:19:14;;;;;;;8.68;1.73;;;;;;;;;;5079590;28;20074;-62
2023/03/14 10:21:44;;;;;;;12.68;2.53;;;;;;;;;;5057444;28;20045;-60
2023/03/14 10:24:30;;;;;;;15.10;2.85;;;;;;;;;;5060281;28;20049;-61
2023/03/14 10:27:01;;;;;;;17.20;2.47;;;;;;;;;;5060626;28;20131;-61
2023/03/14 10:29:28;;;;;;;9.88;1.95;;;;;;;;;;5060201;28;20452;-61
2023/03/14 10:32:00;;;;;;;11.82;2.45;;;;;;;;;;5063041;28;20040;-61
2023/03/14 10:34:29;;;;;;;12.95;3.25;;;;;;;;;;5060656;28;20146;-60
2023/03/14 10:37:05;;;;;;;17.17;2.95;;;;;;;;;;5064054;28;20045;-60
2023/03/14 10:39:43;;;;;;;16.25;2.35;;;;;;;;;;5054992;28;20088;-60
2023/03/14 10:42:18;;;;;;;16.10;2.40;;;;;;;;;;5055570;28;20080;-60
2023/03/14 10:44:46;;;;;;;16.20;2.00;;;;;;;;;;5060149;28;20494;-61
2023/03/14 10:47:16;;;;;;;18.00;2.58;;;;;;;;;;5058151;28;20065;-62
2023/03/14 10:49:42;;;;;;;18.75;3.42;;;;;;;;;;5061339;28;20060;-61
2023/03/14 10:52:25;;;;;;;16.27;3.10;;;;;;;;;;5068851;28;20048;-60
2023/03/14 10:55:02;;;;;;;17.17;2.60;;;;;;;;;;5067055;28;20061;-60
2023/03/14 10:57:29;;;;;;;16.70;2.92;;;;;;;;;;5065839;28;20049;-61
2023/03/14 10:59:58;;;;;;;18.42;3.38;;;;;;;;;;5061540;28;20049;-61
2023/03/14 11:02:30;;;;;;;23.00;3.20;;;;;;;;;;5066800;28;20060;-60
2023/03/14 11:04:57;;;;;;;15.18;2.88;;;;;;;;;;5063490;28;20506;-60
2023/03/14 11:07:28;;;;;;;7.32;2.10;;;;;;;;;;5062384;28;20130;-61
2023/03/14 11:10:15;;;;;;;9.98;2.00;;;;;;;;;;5062170;28;20553;-61
2023/03/14 11:12:55;;;;;;;18.73;2.78;;;;;;;;;;5048389;28;20423;-58
2023/03/14 11:15:24;;;;;;;20.13;2.92;;;;;;;;;;5049651;28;20084;-59
2023/03/14 11:17:59;;;;;;;12.00;2.13;;;;;;;;;;5052938;28;20072;-58
2023/03/14 11:20:31;;;;;;;20.73;2.83;;;;;;;;;;5054204;28;20530;-59
2023/03/14 11:23:03;;;;;;;18.80;2.40;;;;;;;;;;5059091;28;20096;-59
2023/03/14 11:25:34;;;;;;;12.95;2.35;;;;;;;;;;5059261;28;20149;-58
2023/03/14 11:28:01;;;;;;;16.20;2.08;;;;;;;;;;5064483;28;20087;-59
2023/03/14 11:30:46;;;;;;;15.32;2.72;;;;;;;;;;5063024;28;20053;-59
2023/03/14 11:33:16;;;;;;;13.45;2.22;;;;;;;;;;5061284;28;20516;-59
2023/03/14 11:35:55;;;;;;;10.05;2.10;;;;;;;;;;5063932;28;20057;-58
2023/03/14 11:38:27;;;;;;;9.43;1.67;;;;;;;;;;5062466;28;20044;-58
2023/03/14 11:40:55;;;;;;;18.90;2.63;;;;;;;;;;5063289;28;20056;-59
2023/03/14 11:43:38;;;;;;;8.15;1.60;;;;;;;;;;5051833;28;20149;-58
2023/03/14 11:46:07;;;;;;;15.27;2.28;;;;;;;;;;5057226;28;20047;-58
2023/03/14 11:48:40;;;;;;;6.03;1.85;;;;;;;;;;5062740;28;20132;-58
2023/03/14 11:51:12;;;;;;;20.58;2.83;;;;;;;;;;5062509;27;20099;-58
2023/03/14 11:53:39;;;;;;;18.60;2.72;;;;;;;;;;5058971;28;20123;-58
2023/03/14 11:56:13;;;;;;;15.55;2.28;;;;;;;;;;5062098;28;20057;-58
2023/03/14 11:58:51;;;;;;;12.27;1.88;;;;;;;;;;5058903;28;20667;-59
2023/03/14 12:01:21;;;;;;;8.18;1.73;;;;;;;;;;5063252;28;20060;-59
2023/03/14 12:04:00;;;;;;;8.40;1.90;;;;;;;;;;5072399;28;20049;-58
2023/03/14 12:06:45;;;;;;;4.38;1.25;;;;;;;;;;5062857;28;20607;-59
2023/03/14 12:09:13;;;;;;;6.50;1.15;;;;;;;;;;5062170;28;20045;-59
2023/03/14 12:11:57;;;;;;;9.32;1.80;;;;;;;;;;5060871;28;20052;-58
2023/03/14 12:14:27;;;;;;;16.42;2.17;;;;;;;;;;5060041;28;20049;-58
2023/03/14 12:16:58;;;;;;;13.55;3.17;;;;;;;;;;5061711;28;20177;-58
2023/03/14 12:19:25;;;;;;;11.50;2.33;;;;;;;;;;5060804;28;20076;-58
2023/03/14 12:22:15;;;;;;;10.38;2.05;;;;;;;;;;5061630;28;20553;-59
2023/03/14 12:24:45;;;;;;;6.90;1.88;;;;;;;;;;5046448;28;20049;-59
2023/03/14 12:27:32;;;;;;;9.40;2.08;;;;;;;;;;5059946;28;20053;-59
2023/03/14 12:30:00;;;;;;;6.80;1.52;;;;;;;;;;5053605;28;20400;-58
2023/03/14 12:32:31;;;;;;;9.77;1.48;;;;;;;;;;5071007;28;20060;-59
2023/03/14 12:35:06;;;;;;;6.05;2.17;;;;;;;;;;5071113;28;20049;-59
2023/03/14 12:37:37;;;;;;;5.32;1.40;;;;;;;;;;5061958;28;20053;-59
2023/03/14 12:40:10;;;;;;;7.18;1.20;;;;;;;;;;5043126;28;20557;-58
2023/03/14 12:42:40;;;;;;;8.55;1.27;;;;;;;;;;5071863;28;20408;-57
2023/03/14 12:45:23;;;;;;;4.43;1.33;;;;;;;;;;5069302;28;20041;-58
2023/03/14 12:47:54;;;;;;;5.32;1.25;;;;;;;;;;5059336;28;20309;-58
2023/03/14 12:50:25;;;;;;;3.83;1.45;;;;;;;;;;5057252;28;20443;-59
2023/03/14 12:53:02;;;;;;;9.48;1.80;;;;;;;;;;5059865;28;20463;-59
2023/03/14 12:55:36;;;;;;;7.47;1.33;;;;;;;;;;5055388;28;20045;-58
2023/03/14 12:58:08;;;;;;;12.43;1.23;;;;;;;;;;5074034;28;20049;-60
2023/03/14 13:00:38;;;;;;;5.90;1.40;;;;;;;;;;5060403;28;20317;-59
2023/03/14 13:03:24;;;;;;;7.35;1.45;;;;;;;;;;5066409;28;20554;-58
2023/03/14 13:05:58;;;;;;;6.65;1.20;;;;;;;;;;5061281;28;20558;-58
2023/03/14 13:08:32;;;;;;;4.70;1.08;;;;;;;;;;5057905;28;20515;-58
2023/03/14 13:11:01;;;;;;;5.28;1.20;;;;;;;;;;5057655;28;20345;-58
2023/03/14 13:13:28;;;;;;;8.77;1.70;;;;;;;;;;5068994;28;20434;-58
2023/03/14 13:16:00;;;;;;;3.10;0.75;;;;;;;;;;5061515;28;20056;-59
2023/03/14 13:18:35;;;;;;;8.27;1.10;;;;;;;;;;5067540;28;20056;-59
2023/03/14 13:21:19;;;;;;;3.45;0.90;;;;;;;;;;5072232;28;20540;-59
2023/03/14 13:24:02;;;;;;;2.10;0.55;;;;;;;;;;5059676;28;20050;-59
2023/03/14 13:26:35;;;;;;;5.00;0.77;;;;;;;;;;5060430;28;20076;-59
2023/03/14 13:29:17;;;;;;;5.63;1.38;;;;;;;;;;5059295;28;20041;-57
2023/03/14 13:31:45;;;;;;;7.13;1.50;;;;;;;;;;5062350;28;20053;-58
2023/03/14 13:34:12;;;;;;;7.50;1.23;;;;;;;;;;5042241;28;20081;-59
2023/03/14 13:36:38;;;;;;;7.25;1.25;;;;;;;;;;5061767;28;20049;-59
2023/03/14 13:39:11;;;;;;;5.32;1.60;;;;;;;;;;5058153;28;20161;-57
2023/03/14 13:41:38;;;;;;;3.05;0.82;;;;;;;;;;5059540;28;20139;-58
2023/03/14 13:44:13;;;;;;;8.70;2.70;;;;;;;;;;5060581;28;20580;-59
2023/03/14 13:46:39;;;;;;;8.15;1.05;;;;;;;;;;5061275;28;21017;-59
2023/03/14 13:49:09;;;;;;;11.13;1.27;;;;;;;;;;5057950;28;20062;-59
2023/03/14 13:51:37;;;;;;;14.18;1.15;;;;;;;;;;5052889;28;20143;-59
2023/03/14 13:54:12;;;;;;;6.30;1.90;;;;;;;;;;5061321;28;20136;-59
2023/03/14 13:56:39;;;;;;;10.90;1.73;;;;;;;;;;5051365;28;20045;-59
2023/03/14 13:59:26;;;;;;;6.70;1.60;;;;;;;;;;5076648;28;20049;-59
2023/03/14 14:01:53;;;;;;;9.60;2.10;;;;;;;;;;5044663;28;20421;-59
2023/03/14 14:04:25;;;;;;;8.65;1.50;;;;;;;;;;5059504;28;20138;-59
2023/03/14 14:06:55;;;;;;;7.05;1.33;;;;;;;;;;5060611;28;20242;-59
2023/03/14 14:09:26;;;;;;;8.35;1.17;;;;;;;;;;5060578;28;20064;-59
2023/03/14 14:11:57;;;;;;;6.88;1.38;;;;;;;;;;5079863;28;20052;-59
2023/03/14 14:14:49;;;;;;;11.90;1.50;;;;;;;;;;5064391;28;20057;-59
2023/03/14 14:17:18;;;;;;;15.88;1.75;;;;;;;;;;5064174;28;20053;-60
2023/03/14 14:19:45;;;;;;;7.57;1.33;;;;;;;;;;5057527;28;20649;-59
2023/03/14 14:22:12;;;;;;;2.03;0.75;;;;;;;;;;5065125;28;20057;-60
2023/03/14 14:24:39;;;;;;;4.03;1.33;;;;;;;;;;5074902;28;20872;-60
2023/03/14 14:27:15;;;;;;;9.27;1.67;;;;;;;;;;5056442;28;20057;-60
2023/03/14 14:29:41;;;;;;;;;;;;;;;;;;5064147;28;20049;-57
2023/03/14 14:32:07;;;;;;;9.52;1.67;;;;;;;;;;5054740;28;45011;-59
2023/03/14 14:34:50;;;;;;;5.32;0.85;;;;;;;;;;5078709;28;20594;-59
2023/03/14 14:37:21;;;;;;;7.38;1.30;;;;;;;;;;5057655;28;20103;-60
2023/03/14 14:39:48;;;;;;;6.70;1.50;;;;;;;;;;5063507;28;20485;-58
2023/03/14 14:42:16;;;;;;;7.53;1.20;;;;;;;;;;5064429;28;20433;-60
2023/03/14 14:44:44;;;;;;;6.38;1.60;;;;;;;;;;5065383;28;20056;-60
2023/03/14 14:47:14;;;;;;;6.05;1.35;;;;;;;;;;5061566;28;20553;-59
2023/03/14 14:49:40;;;;;;;8.25;1.23;;;;;;;;;;5065559;28;20045;-60